createdAt,value
2019-05-18T00:01:38.417Z,12.50
2019-05-18T00:04:08.210Z,12.40
2019-05-18T00:06:38.291Z,12.50
2019-05-18T00:09:08.512Z,12.50
2019-05-18T00:11:38.511Z,12.50
2019-05-18T00:14:08.430Z,12.60
2019-05-18T00:16:38.540Z,12.60
2019-05-18T00:19:08.671Z,12.70
2019-05-18T00:21:38.676Z,12.70
2019-05-18T00:24:08.712Z,12.70
2019-05-18T00:26:38.751Z,12.70
2019-05-18T00:29:08.768Z,12.70
2019-05-18T00:31:39.861Z,12.80
2019-05-18T00:34:10.047Z,12.80
2019-05-18T00:36:40.012Z,12.80
2019-05-18T00:39:10.016Z,12.80
2019-05-18T00:41:39.748Z,12.70
2019-05-18T00:44:09.841Z,12.70
2019-05-18T00:46:39.877Z,12.70
2019-05-18T00:49:09.774Z,12.70
2019-05-18T00:51:39.809Z,12.70
2019-05-18T00:54:09.758Z,12.70
2019-05-18T00:56:39.830Z,12.70
2019-05-18T00:59:09.963Z,12.70
2019-05-18T01:01:41.485Z,12.80
2019-05-18T01:04:11.420Z,12.70
2019-05-18T01:06:41.208Z,12.70
2019-05-18T01:09:11.144Z,12.70
2019-05-18T01:11:41.064Z,12.70
2019-05-18T01:14:11.062Z,12.70
2019-05-18T01:16:43.945Z,12.70
2019-05-18T01:19:13.887Z,12.60
2019-05-18T01:21:43.904Z,12.60
2019-05-18T01:24:13.788Z,12.60
2019-05-18T01:26:43.707Z,12.60
2019-05-18T01:29:13.513Z,12.60
2019-05-18T01:31:43.649Z,12.70
2019-05-18T01:34:15.247Z,12.70
2019-05-18T01:36:45.109Z,12.70
2019-05-18T01:39:15.117Z,12.70
2019-05-18T01:41:45.041Z,12.60
2019-05-18T01:44:15.157Z,12.60
2019-05-18T01:46:45.166Z,12.60
2019-05-18T01:49:15.168Z,12.50
2019-05-18T01:51:45.206Z,12.50
2019-05-18T01:54:15.233Z,12.50
2019-05-18T01:56:45.224Z,12.50
2019-05-18T01:59:15.156Z,12.60
2019-05-18T02:01:45.155Z,12.50
2019-05-18T02:04:15.080Z,12.50
2019-05-18T02:06:45.059Z,12.40
2019-05-18T02:09:14.996Z,12.40
2019-05-18T02:11:44.721Z,12.40
2019-05-18T02:14:14.632Z,12.40
2019-05-18T02:16:44.562Z,12.40
2019-05-18T02:19:14.348Z,12.30
2019-05-18T02:21:44.155Z,12.30
2019-05-18T02:24:13.890Z,12.30
2019-05-18T02:26:43.763Z,12.30
2019-05-18T02:29:13.500Z,12.30
2019-05-18T02:31:43.407Z,12.30
2019-05-18T02:34:13.526Z,12.20
2019-05-18T02:36:43.440Z,12.20
2019-05-18T02:39:13.553Z,12.30
2019-05-18T02:41:43.360Z,12.20
2019-05-18T02:44:13.292Z,12.20
2019-05-18T02:46:42.884Z,12.20
2019-05-18T02:49:12.504Z,12.20
2019-05-18T02:51:42.199Z,12.20
2019-05-18T02:54:11.809Z,12.20
2019-05-18T02:56:41.409Z,12.20
2019-05-18T02:59:11.116Z,12.30
2019-05-18T03:01:40.847Z,12.30
2019-05-18T03:04:10.401Z,12.30
2019-05-18T03:06:40.040Z,12.30
2019-05-18T03:09:09.668Z,12.30
2019-05-18T03:14:10.177Z,12.30
2019-05-18T03:16:39.921Z,12.20
2019-05-18T03:19:09.659Z,12.30
2019-05-18T03:21:39.240Z,12.30
2019-05-18T03:24:08.875Z,12.30
2019-05-18T03:26:38.592Z,12.30
2019-05-18T03:29:08.208Z,12.40
2019-05-18T03:31:37.947Z,12.40
2019-05-18T03:34:07.662Z,12.50
2019-05-18T03:36:37.260Z,12.50
2019-05-18T03:39:07.292Z,12.50
2019-05-18T03:41:37.068Z,12.60
2019-05-18T03:44:06.691Z,12.60
2019-05-18T03:46:36.329Z,12.70
2019-05-18T03:49:06.011Z,12.70
2019-05-18T03:51:35.633Z,12.70
2019-05-18T03:54:05.277Z,12.70
2019-05-18T03:56:35.010Z,12.80
2019-05-18T03:59:04.589Z,12.80
2019-05-18T04:01:34.218Z,12.80
2019-05-18T04:04:03.859Z,12.90
2019-05-18T04:06:33.528Z,13.00
2019-05-18T04:09:04.043Z,13.00
2019-05-18T04:11:33.648Z,13.10
2019-05-18T04:14:07.908Z,13.10
2019-05-18T04:16:34.508Z,13.10
2019-05-18T04:19:04.099Z,13.10
2019-05-18T04:21:33.775Z,13.10
2019-05-18T04:24:03.384Z,13.10
2019-05-18T04:26:33.007Z,13.20
2019-05-18T04:29:02.668Z,13.30
2019-05-18T04:31:32.740Z,13.30
2019-05-18T04:34:02.521Z,13.30
2019-05-18T04:36:32.192Z,13.30
2019-05-18T04:39:01.864Z,13.40
2019-05-18T04:41:31.509Z,13.40
2019-05-18T04:44:01.124Z,13.70
2019-05-18T04:46:30.726Z,13.70
2019-05-18T04:49:00.460Z,13.90
2019-05-18T04:51:30.108Z,14.00
2019-05-18T04:53:59.741Z,14.00
2019-05-18T04:56:29.472Z,14.10
2019-05-18T04:58:59.078Z,14.20
2019-05-18T05:01:28.792Z,14.30
2019-05-18T05:03:58.572Z,14.40
2019-05-18T05:06:28.225Z,14.40
2019-05-18T05:08:57.828Z,14.50
2019-05-18T05:11:27.537Z,14.60
2019-05-18T05:13:57.212Z,14.60
2019-05-18T05:16:26.825Z,14.60
2019-05-18T05:18:56.456Z,14.70
2019-05-18T05:21:26.128Z,14.80
2019-05-18T05:23:55.753Z,14.90
2019-05-18T05:26:25.383Z,15.00
2019-05-18T05:28:55.051Z,15.30
2019-05-18T05:31:24.679Z,15.50
2019-05-18T05:33:54.272Z,15.60
2019-05-18T05:36:23.936Z,15.80
2019-05-18T05:38:53.645Z,15.80
2019-05-18T05:41:23.303Z,16.00
2019-05-18T05:43:52.932Z,16.00
2019-05-18T05:46:22.639Z,16.00
2019-05-18T05:48:52.362Z,16.10
2019-05-18T05:51:23.217Z,16.20
2019-05-18T05:53:53.138Z,16.30
2019-05-18T05:56:22.722Z,16.20
2019-05-18T05:58:52.324Z,16.60
2019-05-18T06:01:22.124Z,16.60
2019-05-18T06:03:51.749Z,16.70
2019-05-18T06:06:23.167Z,16.80
2019-05-18T06:08:52.885Z,16.70
2019-05-18T06:11:22.455Z,17.00
2019-05-18T06:13:52.509Z,17.30
2019-05-18T06:16:22.324Z,17.50
2019-05-18T06:18:52.454Z,17.60
2019-05-18T06:21:22.570Z,17.50
2019-05-18T06:23:52.367Z,17.70
2019-05-18T06:26:24.235Z,17.80
2019-05-18T06:28:53.840Z,18.00
2019-05-18T06:31:23.441Z,18.20
2019-05-18T06:33:53.164Z,18.30
2019-05-18T06:36:23.100Z,18.20
2019-05-18T06:38:53.080Z,18.10
2019-05-18T06:41:23.134Z,18.20
2019-05-18T06:43:52.816Z,18.40
2019-05-18T06:46:22.732Z,18.60
2019-05-18T06:48:52.424Z,18.50
2019-05-18T06:51:22.351Z,18.80
2019-05-18T06:53:53.173Z,18.80
2019-05-18T06:56:23.308Z,19.10
2019-05-18T06:58:54.243Z,19.10
2019-05-18T07:01:24.119Z,19.20
2019-05-18T07:03:55.084Z,19.20
2019-05-18T07:06:25.105Z,19.30
2019-05-18T07:08:55.024Z,19.50
2019-05-18T07:11:25.016Z,19.30
2019-05-18T07:13:57.875Z,19.60
2019-05-18T07:16:29.098Z,19.80
2019-05-18T07:18:59.000Z,19.80
2019-05-18T07:21:28.932Z,19.70
2019-05-18T07:23:58.804Z,19.90
2019-05-18T07:26:28.832Z,20.00
2019-05-18T07:28:58.823Z,20.20
2019-05-18T07:31:28.907Z,20.50
2019-05-18T07:33:58.675Z,20.60
2019-05-18T07:36:28.676Z,20.90
2019-05-18T07:38:58.683Z,20.70
2019-05-18T07:41:28.629Z,21.00
2019-05-18T07:43:58.711Z,21.10
2019-05-18T07:46:28.527Z,21.40
2019-05-18T07:48:58.459Z,21.50
2019-05-18T07:51:37.192Z,21.70
2019-05-18T07:54:02.788Z,22.00
2019-05-18T07:56:32.692Z,22.10
2019-05-18T07:59:02.616Z,22.30
2019-05-18T08:01:32.624Z,22.40
2019-05-18T08:04:02.649Z,21.70
2019-05-18T08:06:32.560Z,21.00
2019-05-18T08:09:02.680Z,21.20
2019-05-18T08:11:32.580Z,21.40
2019-05-18T08:14:02.712Z,21.90
2019-05-18T08:16:32.612Z,22.10
2019-05-18T08:19:05.290Z,22.20
2019-05-18T08:21:35.204Z,21.90
2019-05-18T08:24:05.229Z,22.20
2019-05-18T08:26:35.801Z,22.60
2019-05-18T08:29:05.675Z,23.30
2019-05-18T08:31:35.797Z,23.20
2019-05-18T08:34:05.729Z,23.20
2019-05-18T08:36:35.619Z,23.80
2019-05-18T08:39:06.473Z,24.90
2019-05-18T08:41:37.373Z,25.30
2019-05-18T08:44:06.989Z,25.40
2019-05-18T08:46:36.788Z,25.90
2019-05-18T08:49:06.409Z,25.80
2019-05-18T08:51:36.127Z,26.00
2019-05-18T08:54:05.788Z,25.70
2019-05-18T08:56:35.404Z,26.10
2019-05-18T08:59:05.365Z,26.40
2019-05-18T09:01:35.017Z,26.80
2019-05-18T09:04:04.640Z,26.30
2019-05-18T09:06:34.261Z,26.10
2019-05-18T09:09:05.615Z,26.20
2019-05-18T09:11:35.628Z,26.40
2019-05-18T09:14:05.952Z,25.40
2019-05-18T09:16:36.001Z,25.40
2019-05-18T09:19:05.879Z,25.20
2019-05-18T09:21:35.830Z,25.50
2019-05-18T09:24:05.614Z,25.80
2019-05-18T09:26:35.285Z,25.90
2019-05-18T09:29:05.247Z,25.70
2019-05-18T09:31:34.868Z,26.00
2019-05-18T09:34:07.009Z,26.20
2019-05-18T09:36:36.781Z,26.20
2019-05-18T09:39:08.003Z,26.20
2019-05-18T09:41:37.873Z,26.20
2019-05-18T09:44:07.595Z,25.30
2019-05-18T09:46:37.367Z,24.70
2019-05-18T09:49:07.272Z,24.90
2019-05-18T09:51:37.358Z,25.00
2019-05-18T09:54:07.260Z,24.70
2019-05-18T09:56:37.367Z,24.60
2019-05-18T09:59:07.259Z,24.70
2019-05-18T10:01:37.401Z,24.90
2019-05-18T10:04:07.492Z,24.70
2019-05-18T10:06:37.535Z,24.70
2019-05-18T10:09:08.988Z,24.60
2019-05-18T10:11:39.011Z,25.10
2019-05-18T10:14:09.226Z,24.30
2019-05-18T10:16:39.130Z,24.80
2019-05-18T10:19:09.047Z,24.90
2019-05-18T10:21:39.147Z,24.90
2019-05-18T10:24:08.987Z,24.80
2019-05-18T10:26:38.976Z,24.50
2019-05-18T10:29:08.881Z,24.10
2019-05-18T10:31:38.615Z,23.70
2019-05-18T10:34:08.290Z,23.00
2019-05-18T10:36:38.124Z,23.40
2019-05-18T10:39:08.639Z,23.40
2019-05-18T10:41:38.252Z,23.50
2019-05-18T10:44:08.295Z,23.90
2019-05-18T10:46:38.215Z,24.50
2019-05-18T10:49:08.228Z,24.80
2019-05-18T10:51:38.216Z,25.30
2019-05-18T10:54:07.860Z,25.40
2019-05-18T10:56:37.649Z,24.60
2019-05-18T10:59:07.240Z,24.10
2019-05-18T11:01:36.864Z,24.60
2019-05-18T11:04:06.761Z,25.10
2019-05-18T11:06:36.799Z,25.70
2019-05-18T11:09:07.524Z,26.00
2019-05-18T11:11:39.088Z,26.20
2019-05-18T11:14:08.892Z,26.70
2019-05-18T11:16:38.784Z,26.20
2019-05-18T11:19:08.819Z,25.60
2019-05-18T11:21:38.833Z,25.70
2019-05-18T11:24:08.980Z,25.30
2019-05-18T11:26:38.956Z,25.40
2019-05-18T11:29:08.576Z,25.90
2019-05-18T11:31:38.229Z,25.70
2019-05-18T11:34:08.060Z,25.90
2019-05-18T11:36:38.015Z,26.30
2019-05-18T11:39:08.440Z,25.60
2019-05-18T11:41:38.446Z,25.00
2019-05-18T11:44:10.799Z,25.50
2019-05-18T11:46:39.508Z,25.90
2019-05-18T11:49:09.409Z,25.90
2019-05-18T11:51:39.297Z,25.50
2019-05-18T11:54:09.258Z,25.60
2019-05-18T11:56:38.873Z,25.80
2019-05-18T11:59:08.933Z,26.10
2019-05-18T12:01:41.334Z,25.90
2019-05-18T12:04:11.356Z,25.50
2019-05-18T12:06:41.285Z,25.20
2019-05-18T12:09:11.292Z,25.20
2019-05-18T12:11:41.375Z,25.00
2019-05-18T12:14:11.308Z,24.70
2019-05-18T12:16:40.916Z,24.70
2019-05-18T12:19:10.948Z,24.60
2019-05-18T12:21:41.062Z,24.20
2019-05-18T12:24:15.279Z,23.60
2019-05-18T12:26:42.644Z,23.90
2019-05-18T12:29:12.534Z,24.10
2019-05-18T12:31:42.352Z,24.50
2019-05-18T12:34:13.581Z,24.90
2019-05-18T12:36:43.605Z,24.00
2019-05-18T12:39:14.676Z,24.30
2019-05-18T12:41:44.879Z,24.70
2019-05-18T12:44:14.985Z,25.10
2019-05-18T12:46:45.026Z,24.80
2019-05-18T12:49:15.140Z,24.30
2019-05-18T12:51:45.144Z,23.80
2019-05-18T12:54:29.199Z,24.00
2019-05-18T12:56:49.180Z,23.50
2019-05-18T12:59:19.320Z,23.60
2019-05-18T13:01:48.956Z,23.60
2019-05-18T13:04:18.638Z,23.60
2019-05-18T13:24:45.592Z,27.40
2019-05-18T13:27:14.633Z,29.90
2019-05-18T13:29:44.325Z,30.80
2019-05-18T13:32:14.112Z,30.40
2019-05-18T13:34:44.227Z,29.30
2019-05-18T13:37:14.386Z,29.30
2019-05-18T13:39:44.224Z,29.60
2019-05-18T13:42:13.907Z,29.60
2019-05-18T13:44:44.077Z,29.50
2019-05-18T13:47:13.828Z,31.00
2019-05-18T13:49:43.535Z,30.60
2019-05-18T13:52:13.357Z,31.00
2019-05-18T13:54:43.264Z,30.60
2019-05-18T13:57:13.383Z,28.20
2019-05-18T13:59:43.526Z,26.90
2019-05-18T14:02:13.702Z,26.00
2019-05-18T14:04:43.861Z,26.00
2019-05-18T14:07:13.898Z,26.80
2019-05-18T14:09:47.097Z,27.50
2019-05-18T14:12:17.373Z,27.80
2019-05-18T14:14:47.879Z,28.90
2019-05-18T14:17:18.217Z,28.40
2019-05-18T14:19:48.295Z,27.40
2019-05-18T14:22:18.374Z,27.50
2019-05-18T14:24:48.442Z,27.20
2019-05-18T14:27:20.894Z,26.90
2019-05-18T14:29:50.737Z,26.90
2019-05-18T14:32:20.878Z,26.70
2019-05-18T14:34:50.682Z,25.80
2019-05-18T14:37:20.459Z,25.50
2019-05-18T14:39:50.488Z,25.30
2019-05-18T14:42:23.442Z,24.90
2019-05-18T14:44:53.521Z,24.60
2019-05-18T14:47:27.156Z,24.30
2019-05-18T14:49:55.035Z,24.00
2019-05-18T14:52:24.891Z,23.60
2019-05-18T14:54:54.993Z,23.30
2019-05-18T14:57:27.588Z,23.40
2019-05-18T14:59:57.506Z,23.90
2019-05-18T15:02:27.804Z,24.50
2019-05-18T15:04:57.535Z,25.00
2019-05-18T15:07:27.309Z,25.40
2019-05-18T15:09:57.087Z,25.20
2019-05-18T15:12:26.831Z,24.90
2019-05-18T15:14:56.708Z,24.50
2019-05-18T15:17:26.507Z,24.20
2019-05-18T15:19:56.257Z,23.90
2019-05-18T15:22:25.971Z,23.60
2019-05-18T15:24:55.668Z,23.10
2019-05-18T15:27:25.530Z,22.80
2019-05-18T15:29:55.627Z,22.30
2019-05-18T15:32:25.342Z,21.90
2019-05-18T15:34:57.192Z,21.60
2019-05-18T15:37:26.954Z,21.20
2019-05-18T15:39:59.465Z,21.00
2019-05-18T15:42:29.231Z,20.90
2019-05-18T15:44:59.046Z,20.80
2019-05-18T15:47:28.840Z,20.70
2019-05-18T15:49:58.605Z,20.60
2019-05-18T15:52:28.368Z,20.50
2019-05-18T15:54:58.090Z,20.10
2019-05-18T15:57:28.819Z,20.10
2019-05-18T15:59:58.879Z,20.00
2019-05-18T16:02:28.880Z,19.90
2019-05-18T16:04:58.846Z,19.90
2019-05-18T16:07:29.147Z,19.90
2019-05-18T16:09:59.189Z,19.90
2019-05-18T16:12:29.309Z,19.80
2019-05-18T16:14:59.366Z,19.60
2019-05-18T16:17:38.837Z,19.60
2019-05-18T16:20:02.914Z,19.40
2019-05-18T16:22:32.922Z,19.20
2019-05-18T16:25:03.099Z,19.00
2019-05-18T16:27:33.412Z,18.90
2019-05-18T16:30:03.451Z,18.80
2019-05-18T16:32:33.555Z,18.50
2019-05-18T16:35:06.644Z,18.00
2019-05-18T16:37:36.500Z,17.50
2019-05-18T16:40:06.796Z,17.10
2019-05-18T16:42:36.707Z,17.00
2019-05-18T16:45:07.096Z,16.70
2019-05-18T16:47:37.230Z,16.70
2019-05-18T16:50:07.834Z,16.80
2019-05-18T16:52:37.830Z,16.50
2019-05-18T16:55:08.215Z,16.20
2019-05-18T16:57:38.393Z,15.90
2019-05-18T17:00:09.671Z,15.80
2019-05-18T17:02:39.754Z,15.90
2019-05-18T17:05:09.646Z,16.00
2019-05-18T17:07:39.325Z,16.00
2019-05-18T17:10:09.717Z,15.90
2019-05-18T17:12:39.454Z,16.00
2019-05-18T17:15:09.689Z,16.00
2019-05-18T17:17:39.414Z,16.00
2019-05-18T17:20:09.431Z,16.10
2019-05-18T17:22:39.118Z,16.20
2019-05-18T17:25:09.030Z,16.10
2019-05-18T17:27:38.993Z,16.10
2019-05-18T17:30:09.515Z,16.20
2019-05-18T17:32:39.279Z,16.20
2019-05-18T17:35:09.669Z,16.20
2019-05-18T17:37:39.322Z,16.10
2019-05-18T17:40:09.743Z,16.00
2019-05-18T17:42:41.487Z,16.00
2019-05-18T17:45:12.469Z,16.00
2019-05-18T17:47:43.186Z,16.00
2019-05-18T17:50:13.444Z,16.10
2019-05-18T17:52:43.114Z,16.20
2019-05-18T17:55:16.226Z,16.20
2019-05-18T17:57:44.441Z,16.20
2019-05-18T18:02:43.679Z,16.10
2019-05-18T18:05:14.170Z,16.10
2019-05-18T18:07:43.843Z,15.80
2019-05-18T18:10:14.297Z,15.40
2019-05-18T18:12:43.964Z,15.30
2019-05-18T18:15:15.570Z,15.20
2019-05-18T18:17:45.262Z,15.20
2019-05-18T18:20:15.542Z,15.30
2019-05-18T18:22:45.215Z,15.20
2019-05-18T18:25:15.429Z,15.30
2019-05-18T18:27:45.150Z,15.30
2019-05-18T18:30:18.697Z,15.40
2019-05-18T18:32:48.516Z,15.30
2019-05-18T18:35:18.566Z,15.20
2019-05-18T18:37:48.353Z,15.20
2019-05-18T18:40:18.507Z,15.10
2019-05-18T18:42:48.394Z,15.00
2019-05-18T18:45:19.636Z,15.00
2019-05-18T18:47:49.445Z,14.80
2019-05-18T18:50:19.506Z,14.80
2019-05-18T18:52:50.926Z,14.70
2019-05-18T18:55:21.090Z,14.70
2019-05-18T18:57:51.038Z,14.60
2019-05-18T19:00:21.914Z,14.70
2019-05-18T19:02:52.127Z,14.70
2019-05-18T19:05:22.207Z,14.70
2019-05-18T19:07:52.147Z,14.70
2019-05-18T19:10:22.266Z,14.70
2019-05-18T19:12:52.159Z,14.70
2019-05-18T19:15:22.378Z,14.70
2019-05-18T19:17:52.570Z,14.80
2019-05-18T19:20:22.538Z,14.90
2019-05-18T19:22:59.783Z,14.90
2019-05-18T19:25:29.730Z,14.90
2019-05-18T19:27:59.734Z,14.80
2019-05-18T19:30:29.714Z,14.80
2019-05-18T19:32:59.422Z,14.80
2019-05-18T19:35:29.218Z,14.90
2019-05-18T19:37:58.904Z,14.90
2019-05-18T19:40:28.698Z,14.80
2019-05-18T19:42:58.373Z,14.80
2019-05-18T19:45:28.179Z,14.80
2019-05-18T19:47:57.918Z,14.80
2019-05-18T19:50:27.602Z,14.70
2019-05-18T19:52:57.289Z,14.70
2019-05-18T19:55:26.973Z,14.70
2019-05-18T19:58:29.380Z,14.70
2019-05-18T20:02:18.940Z,14.60
2019-05-18T20:05:05.697Z,14.50
2019-05-18T20:07:20.026Z,14.60
2019-05-18T20:09:53.012Z,14.50
2019-05-18T20:12:23.053Z,14.30
2019-05-18T20:14:53.102Z,14.30
2019-05-18T20:17:23.162Z,14.30
2019-05-18T20:19:53.019Z,14.30
2019-05-18T20:22:23.014Z,14.20
2019-05-18T20:24:53.006Z,14.20
2019-05-18T20:27:23.175Z,14.10
2019-05-18T20:29:53.158Z,14.20
2019-05-18T20:32:25.114Z,14.20
2019-05-18T20:34:55.358Z,14.20
2019-05-18T20:37:25.254Z,14.10
2019-05-18T20:39:55.511Z,14.20
2019-05-18T20:42:25.438Z,14.10
2019-05-18T20:44:55.557Z,14.10
2019-05-18T20:47:25.952Z,14.10
2019-05-18T20:49:55.956Z,14.20
2019-05-18T20:52:30.681Z,14.30
2019-05-18T20:55:00.398Z,14.30
2019-05-18T20:57:30.211Z,14.30
2019-05-18T21:00:00.011Z,14.20
2019-05-18T21:02:30.234Z,14.20
2019-05-18T21:05:00.101Z,14.20
2019-05-18T21:07:29.959Z,14.20
2019-05-18T21:09:59.884Z,14.10
2019-05-18T21:12:30.021Z,14.10
2019-05-18T21:15:00.237Z,14.10
2019-05-18T21:17:29.943Z,14.00
2019-05-18T21:19:59.810Z,14.00
2019-05-18T21:22:30.510Z,14.10
2019-05-18T21:25:00.381Z,14.10
2019-05-18T21:27:33.081Z,14.10
2019-05-18T21:30:02.950Z,14.00
2019-05-18T21:32:34.555Z,14.00
2019-05-18T21:35:04.668Z,14.00
2019-05-18T21:37:34.675Z,14.00
2019-05-18T21:40:05.019Z,14.00
2019-05-18T21:42:35.135Z,13.90
2019-05-18T21:45:05.613Z,13.90
2019-05-18T21:47:35.422Z,13.90
2019-05-18T21:50:05.741Z,13.80
2019-05-18T21:52:35.573Z,13.80
2019-05-18T21:55:05.803Z,13.90
2019-05-18T21:57:35.710Z,13.80
2019-05-18T22:00:07.670Z,13.70
2019-05-18T22:02:37.541Z,13.80
2019-05-18T22:05:08.198Z,13.80
2019-05-18T22:07:38.235Z,13.80
2019-05-18T22:10:08.757Z,13.70
2019-05-18T22:12:38.569Z,13.70
2019-05-18T22:15:08.595Z,13.70
2019-05-18T22:17:58.339Z,13.70
2019-05-18T22:20:28.391Z,13.70
2019-05-18T22:22:58.255Z,13.70
2019-05-18T22:25:27.966Z,13.70
2019-05-18T22:27:58.108Z,13.70
2019-05-18T22:30:28.141Z,13.70
2019-05-18T22:32:57.826Z,13.70
2019-05-18T22:35:27.536Z,13.70
2019-05-18T22:37:57.571Z,13.70
2019-05-18T22:40:27.506Z,13.60
2019-05-18T22:42:57.513Z,13.60
2019-05-18T22:45:27.529Z,13.50
2019-05-18T22:48:00.286Z,13.50
2019-05-18T22:50:30.110Z,13.50
2019-05-18T22:53:00.126Z,13.40
2019-05-18T22:55:30.065Z,13.40
2019-05-18T22:57:59.857Z,13.40
2019-05-18T23:00:29.902Z,13.30
2019-05-18T23:02:59.892Z,13.30
2019-05-18T23:05:29.892Z,13.30
2019-05-18T23:07:59.723Z,13.20
2019-05-18T23:10:29.917Z,13.20
2019-05-18T23:12:59.732Z,13.10
2019-05-18T23:15:32.573Z,13.10
2019-05-18T23:18:02.647Z,13.10
2019-05-18T23:20:32.766Z,13.00
2019-05-18T23:23:02.729Z,13.00
2019-05-18T23:25:32.815Z,13.00
2019-05-18T23:28:02.696Z,13.00
2019-05-18T23:30:32.841Z,13.00
2019-05-18T23:33:02.738Z,13.00
2019-05-18T23:35:32.802Z,13.00
2019-05-18T23:38:04.671Z,13.00
2019-05-18T23:40:36.618Z,13.00
2019-05-18T23:43:06.741Z,12.90
2019-05-18T23:45:36.734Z,12.90
2019-05-18T23:48:06.833Z,12.90
2019-05-18T23:50:36.661Z,12.90
2019-05-18T23:53:06.346Z,12.80
2019-05-18T23:55:36.477Z,12.90
2019-05-18T23:58:06.395Z,12.80
